sensor_id;sensor_type;location;lat;lon;timestamp;temperature;humidity
216;HTU21D;45701;48.81287245;9.14186865;2022-10-17T00:00:59;14.87;84.65
216;HTU21D;45701;48.81287245;9.14186865;2022-10-17T00:03:26;14.77;85.22
216;HTU21D;45701;48.81287245;9.14186865;2022-10-17T00:05:52;14.82;84.79
216;HTU21D;45701;48.81287245;9.14186865;2022-10-17T00:08:20;14.82;83.98
216;HTU21D;45701;48.81287245;9.14186865;2022-10-17T00:10:54;14.70;85.48
216;HTU21D;45701;48.81287245;9.14186865;2022-10-17T00:13:21;14.53;86.67
216;HTU21D;45701;48.81287245;9.14186865;2022-10-17T00:15:48;14.40;86.80
216;HTU21D;45701;48.81287245;9.14186865;2022-10-17T00:18:16;14.54;86.03
216;HTU21D;45701;48.81287245;9.14186865;2022-10-17T00:20:43;14.36;86.76
216;HTU21D;45701;48.81287245;9.14186865;2022-10-17T00:23:10;14.41;87.22
216;HTU21D;45701;48.81287245;9.14186865;2022-10-17T00:25:37;14.53;85.93
216;HTU21D;45701;48.81287245;9.14186865;2022-10-17T00:28:05;14.58;85.47
216;HTU21D;45701;48.81287245;9.14186865;2022-10-17T00:30:32;14.59;85.45
216;HTU21D;45701;48.81287245;9.14186865;2022-10-17T00:32:59;14.60;85.80
216;HTU21D;45701;48.81287245;9.14186865;2022-10-17T00:35:27;14.53;86.19
216;HTU21D;45701;48.81287245;9.14186865;2022-10-17T00:37:53;14.43;86.10
216;HTU21D;45701;48.81287245;9.14186865;2022-10-17T00:40:21;14.50;86.35
216;HTU21D;45701;48.81287245;9.14186865;2022-10-17T00:42:47;14.59;85.67
216;HTU21D;45701;48.81287245;9.14186865;2022-10-17T00:45:22;14.80;84.63
216;HTU21D;45701;48.81287245;9.14186865;2022-10-17T00:47:53;14.65;85.05
216;HTU21D;45701;48.81287245;9.14186865;2022-10-17T00:50:21;14.60;85.12
216;HTU21D;45701;48.81287245;9.14186865;2022-10-17T00:52:51;14.65;84.63
216;HTU21D;45701;48.81287245;9.14186865;2022-10-17T00:55:23;14.52;85.42
216;HTU21D;45701;48.81287245;9.14186865;2022-10-17T00:57:51;14.49;85.26
216;HTU21D;45701;48.81287245;9.14186865;2022-10-17T01:00:18;14.58;84.94
216;HTU21D;45701;48.81287245;9.14186865;2022-10-17T01:02:45;14.50;84.20
216;HTU21D;45701;48.81287245;9.14186865;2022-10-17T01:08:10;14.49;85.12
216;HTU21D;45701;48.81287245;9.14186865;2022-10-17T01:10:44;14.58;84.45
216;HTU21D;45701;48.81287245;9.14186865;2022-10-17T01:13:20;14.38;85.13
216;HTU21D;45701;48.81287245;9.14186865;2022-10-17T01:15:54;14.47;85.35
216;HTU21D;45701;48.81287245;9.14186865;2022-10-17T01:18:31;14.18;86.41
216;HTU21D;45701;48.81287245;9.14186865;2022-10-17T01:21:31;14.33;85.42
216;HTU21D;45701;48.81287245;9.14186865;2022-10-17T01:27:31;14.48;84.15
216;HTU21D;45701;48.81287245;9.14186865;2022-10-17T01:33:01;14.45;84.14
216;HTU21D;45701;48.81287245;9.14186865;2022-10-17T01:35:36;14.44;84.15
216;HTU21D;45701;48.81287245;9.14186865;2022-10-17T01:38:07;14.21;84.59
216;HTU21D;45701;48.81287245;9.14186865;2022-10-17T01:40:38;14.07;87.03
216;HTU21D;45701;48.81287245;9.14186865;2022-10-17T01:43:12;13.99;85.67
216;HTU21D;45701;48.81287245;9.14186865;2022-10-17T01:45:44;13.85;87.70
216;HTU21D;45701;48.81287245;9.14186865;2022-10-17T01:48:17;13.89;88.03
216;HTU21D;45701;48.81287245;9.14186865;2022-10-17T01:50:48;14.18;86.00
216;HTU21D;45701;48.81287245;9.14186865;2022-10-17T01:53:18;14.34;84.85
216;HTU21D;45701;48.81287245;9.14186865;2022-10-17T01:55:48;14.30;84.83
216;HTU21D;45701;48.81287245;9.14186865;2022-10-17T01:58:21;14.23;84.95
216;HTU21D;45701;48.81287245;9.14186865;2022-10-17T02:00:49;14.06;86.22
216;HTU21D;45701;48.81287245;9.14186865;2022-10-17T02:03:20;14.13;86.33
216;HTU21D;45701;48.81287245;9.14186865;2022-10-17T02:05:47;14.12;85.74
216;HTU21D;45701;48.81287245;9.14186865;2022-10-17T02:08:24;14.13;85.56
216;HTU21D;45701;48.81287245;9.14186865;2022-10-17T02:10:55;14.34;84.38
216;HTU21D;45701;48.81287245;9.14186865;2022-10-17T02:13:30;14.12;85.26
216;HTU21D;45701;48.81287245;9.14186865;2022-10-17T02:16:10;14.11;85.58
216;HTU21D;45701;48.81287245;9.14186865;2022-10-17T02:19:07;14.37;84.49
216;HTU21D;45701;48.81287245;9.14186865;2022-10-17T02:21:44;14.15;85.35
216;HTU21D;45701;48.81287245;9.14186865;2022-10-17T02:24:18;14.10;85.72
216;HTU21D;45701;48.81287245;9.14186865;2022-10-17T02:26:51;13.58;87.84
216;HTU21D;45701;48.81287245;9.14186865;2022-10-17T02:29:20;13.22;89.95
216;HTU21D;45701;48.81287245;9.14186865;2022-10-17T02:31:51;13.69;88.96
216;HTU21D;45701;48.81287245;9.14186865;2022-10-17T02:34:24;13.65;88.15
216;HTU21D;45701;48.81287245;9.14186865;2022-10-17T02:36:53;13.81;86.87
216;HTU21D;45701;48.81287245;9.14186865;2022-10-17T02:39:22;13.97;86.51
216;HTU21D;45701;48.81287245;9.14186865;2022-10-17T02:41:51;13.93;86.41
216;HTU21D;45701;48.81287245;9.14186865;2022-10-17T02:44:20;13.89;86.78
216;HTU21D;45701;48.81287245;9.14186865;2022-10-17T02:46:52;13.86;87.27
216;HTU21D;45701;48.81287245;9.14186865;2022-10-17T02:49:26;13.65;88.49
216;HTU21D;45701;48.81287245;9.14186865;2022-10-17T02:51:59;13.41;90.37
216;HTU21D;45701;48.81287245;9.14186865;2022-10-17T02:54:32;13.38;90.76
216;HTU21D;45701;48.81287245;9.14186865;2022-10-17T02:57:05;13.32;91.97
216;HTU21D;45701;48.81287245;9.14186865;2022-10-17T02:59:34;13.26;91.42
216;HTU21D;45701;48.81287245;9.14186865;2022-10-17T03:02:02;13.43;91.31
216;HTU21D;45701;48.81287245;9.14186865;2022-10-17T03:04:31;13.33;90.79
216;HTU21D;45701;48.81287245;9.14186865;2022-10-17T03:06:58;13.36;90.23
216;HTU21D;45701;48.81287245;9.14186865;2022-10-17T03:09:25;13.22;91.51
216;HTU21D;45701;48.81287245;9.14186865;2022-10-17T03:11:52;13.65;89.92
216;HTU21D;45701;48.81287245;9.14186865;2022-10-17T03:14:19;13.98;87.06
216;HTU21D;45701;48.81287245;9.14186865;2022-10-17T03:16:46;13.98;86.25
216;HTU21D;45701;48.81287245;9.14186865;2022-10-17T03:19:14;13.67;87.54
216;HTU21D;45701;48.81287245;9.14186865;2022-10-17T03:21:42;13.75;87.33
216;HTU21D;45701;48.81287245;9.14186865;2022-10-17T03:24:10;13.83;85.96
216;HTU21D;45701;48.81287245;9.14186865;2022-10-17T03:26:37;14.05;84.76
216;HTU21D;45701;48.81287245;9.14186865;2022-10-17T03:29:05;13.86;85.03
216;HTU21D;45701;48.81287245;9.14186865;2022-10-17T03:31:33;13.80;85.46
216;HTU21D;45701;48.81287245;9.14186865;2022-10-17T03:34:01;13.84;84.99
216;HTU21D;45701;48.81287245;9.14186865;2022-10-17T03:36:28;13.98;84.61
216;HTU21D;45701;48.81287245;9.14186865;2022-10-17T03:38:56;13.97;84.81
216;HTU21D;45701;48.81287245;9.14186865;2022-10-17T03:41:24;13.83;84.90
216;HTU21D;45701;48.81287245;9.14186865;2022-10-17T03:43:51;13.88;84.97
216;HTU21D;45701;48.81287245;9.14186865;2022-10-17T03:46:19;13.85;84.81
216;HTU21D;45701;48.81287245;9.14186865;2022-10-17T03:48:46;13.62;85.98
216;HTU21D;45701;48.81287245;9.14186865;2022-10-17T03:51:13;13.44;86.52
216;HTU21D;45701;48.81287245;9.14186865;2022-10-17T03:53:45;13.84;84.85
216;HTU21D;45701;48.81287245;9.14186865;2022-10-17T03:56:15;13.76;84.57
216;HTU21D;45701;48.81287245;9.14186865;2022-10-17T03:58:43;13.59;85.90
216;HTU21D;45701;48.81287245;9.14186865;2022-10-17T04:01:14;13.27;86.80
216;HTU21D;45701;48.81287245;9.14186865;2022-10-17T04:03:41;13.18;87.23
216;HTU21D;45701;48.81287245;9.14186865;2022-10-17T04:06:11;13.16;87.95
216;HTU21D;45701;48.81287245;9.14186865;2022-10-17T04:08:39;13.05;88.28
216;HTU21D;45701;48.81287245;9.14186865;2022-10-17T04:11:15;13.10;88.32
216;HTU21D;45701;48.81287245;9.14186865;2022-10-17T04:13:43;13.61;85.84
216;HTU21D;45701;48.81287245;9.14186865;2022-10-17T04:16:11;13.60;85.66
216;HTU21D;45701;48.81287245;9.14186865;2022-10-17T04:18:46;13.67;85.65
216;HTU21D;45701;48.81287245;9.14186865;2022-10-17T04:21:12;13.26;85.81
216;HTU21D;45701;48.81287245;9.14186865;2022-10-17T04:23:39;12.80;88.79
216;HTU21D;45701;48.81287245;9.14186865;2022-10-17T04:26:18;12.75;90.50
216;HTU21D;45701;48.81287245;9.14186865;2022-10-17T04:28:44;12.77;89.47
216;HTU21D;45701;48.81287245;9.14186865;2022-10-17T04:31:12;12.80;88.53
216;HTU21D;45701;48.81287245;9.14186865;2022-10-17T04:33:59;12.77;89.11
216;HTU21D;45701;48.81287245;9.14186865;2022-10-17T04:36:25;12.80;89.89
216;HTU21D;45701;48.81287245;9.14186865;2022-10-17T04:38:52;12.93;89.21
216;HTU21D;45701;48.81287245;9.14186865;2022-10-17T04:41:20;12.99;88.99
216;HTU21D;45701;48.81287245;9.14186865;2022-10-17T04:43:47;13.06;88.22
216;HTU21D;45701;48.81287245;9.14186865;2022-10-17T04:46:14;13.10;88.53
216;HTU21D;45701;48.81287245;9.14186865;2022-10-17T04:48:42;13.27;86.18
216;HTU21D;45701;48.81287245;9.14186865;2022-10-17T04:51:11;13.02;87.89
216;HTU21D;45701;48.81287245;9.14186865;2022-10-17T04:53:49;13.05;88.16
216;HTU21D;45701;48.81287245;9.14186865;2022-10-17T04:56:18;13.29;87.57
216;HTU21D;45701;48.81287245;9.14186865;2022-10-17T04:58:47;13.35;87.12
216;HTU21D;45701;48.81287245;9.14186865;2022-10-17T05:01:16;13.31;86.81
216;HTU21D;45701;48.81287245;9.14186865;2022-10-17T05:03:47;13.34;86.61
216;HTU21D;45701;48.81287245;9.14186865;2022-10-17T05:06:16;13.52;85.39
216;HTU21D;45701;48.81287245;9.14186865;2022-10-17T05:08:48;13.60;84.96
216;HTU21D;45701;48.81287245;9.14186865;2022-10-17T05:11:20;13.64;84.41
216;HTU21D;45701;48.81287245;9.14186865;2022-10-17T05:13:53;13.75;84.49
216;HTU21D;45701;48.81287245;9.14186865;2022-10-17T05:16:21;13.43;85.29
216;HTU21D;45701;48.81287245;9.14186865;2022-10-17T05:18:49;13.35;86.63
216;HTU21D;45701;48.81287245;9.14186865;2022-10-17T05:21:16;13.47;85.09
216;HTU21D;45701;48.81287245;9.14186865;2022-10-17T05:23:43;13.31;85.66
216;HTU21D;45701;48.81287245;9.14186865;2022-10-17T05:26:10;13.37;86.43
216;HTU21D;45701;48.81287245;9.14186865;2022-10-17T05:28:37;13.44;85.87
216;HTU21D;45701;48.81287245;9.14186865;2022-10-17T05:31:08;13.56;84.75
216;HTU21D;45701;48.81287245;9.14186865;2022-10-17T05:33:36;13.21;85.28
216;HTU21D;45701;48.81287245;9.14186865;2022-10-17T05:36:04;13.07;87.77
216;HTU21D;45701;48.81287245;9.14186865;2022-10-17T05:38:32;13.06;88.11
216;HTU21D;45701;48.81287245;9.14186865;2022-10-17T05:40:59;13.31;86.47
216;HTU21D;45701;48.81287245;9.14186865;2022-10-17T05:43:27;13.22;87.61
216;HTU21D;45701;48.81287245;9.14186865;2022-10-17T05:45:53;13.21;87.41
216;HTU21D;45701;48.81287245;9.14186865;2022-10-17T05:48:22;13.34;86.34
216;HTU21D;45701;48.81287245;9.14186865;2022-10-17T05:50:57;13.07;87.00
216;HTU21D;45701;48.81287245;9.14186865;2022-10-17T05:53:23;13.04;88.31
216;HTU21D;45701;48.81287245;9.14186865;2022-10-17T05:55:55;13.21;87.15
216;HTU21D;45701;48.81287245;9.14186865;2022-10-17T05:58:22;13.48;85.87
216;HTU21D;45701;48.81287245;9.14186865;2022-10-17T06:00:56;13.65;84.77
216;HTU21D;45701;48.81287245;9.14186865;2022-10-17T06:03:25;13.64;84.42
216;HTU21D;45701;48.81287245;9.14186865;2022-10-17T06:05:52;13.51;84.38
216;HTU21D;45701;48.81287245;9.14186865;2022-10-17T06:08:20;13.30;85.53
216;HTU21D;45701;48.81287245;9.14186865;2022-10-17T06:10:47;12.95;87.58
216;HTU21D;45701;48.81287245;9.14186865;2022-10-17T06:13:14;13.06;88.35
216;HTU21D;45701;48.81287245;9.14186865;2022-10-17T06:15:41;13.09;87.85
216;HTU21D;45701;48.81287245;9.14186865;2022-10-17T06:18:10;13.17;88.17
216;HTU21D;45701;48.81287245;9.14186865;2022-10-17T06:20:38;13.74;85.34
216;HTU21D;45701;48.81287245;9.14186865;2022-10-17T06:23:05;13.60;86.05
216;HTU21D;45701;48.81287245;9.14186865;2022-10-17T06:25:47;13.79;86.71
216;HTU21D;45701;48.81287245;9.14186865;2022-10-17T06:28:14;13.68;88.17
216;HTU21D;45701;48.81287245;9.14186865;2022-10-17T06:30:41;13.99;87.48
216;HTU21D;45701;48.81287245;9.14186865;2022-10-17T06:33:08;13.93;88.44
216;HTU21D;45701;48.81287245;9.14186865;2022-10-17T06:35:35;13.88;88.76
216;HTU21D;45701;48.81287245;9.14186865;2022-10-17T06:38:03;13.66;90.81
216;HTU21D;45701;48.81287245;9.14186865;2022-10-17T06:40:31;13.93;89.48
216;HTU21D;45701;48.81287245;9.14186865;2022-10-17T06:42:58;14.03;89.31
216;HTU21D;45701;48.81287245;9.14186865;2022-10-17T06:45:54;13.81;90.98
216;HTU21D;45701;48.81287245;9.14186865;2022-10-17T06:48:44;13.96;91.02
216;HTU21D;45701;48.81287245;9.14186865;2022-10-17T06:51:27;14.03;90.63
216;HTU21D;45701;48.81287245;9.14186865;2022-10-17T06:53:58;13.89;92.08
216;HTU21D;45701;48.81287245;9.14186865;2022-10-17T06:56:30;13.84;93.80
216;HTU21D;45701;48.81287245;9.14186865;2022-10-17T06:59:28;14.14;92.48
216;HTU21D;45701;48.81287245;9.14186865;2022-10-17T07:02:00;14.51;89.68
216;HTU21D;45701;48.81287245;9.14186865;2022-10-17T07:04:28;14.42;90.69
216;HTU21D;45701;48.81287245;9.14186865;2022-10-17T07:06:54;14.44;91.73
216;HTU21D;45701;48.81287245;9.14186865;2022-10-17T07:09:25;14.59;90.94
216;HTU21D;45701;48.81287245;9.14186865;2022-10-17T07:11:52;14.68;90.47
216;HTU21D;45701;48.81287245;9.14186865;2022-10-17T07:14:19;14.64;91.34
216;HTU21D;45701;48.81287245;9.14186865;2022-10-17T07:16:47;14.78;90.86
216;HTU21D;45701;48.81287245;9.14186865;2022-10-17T07:19:20;14.95;90.05
216;HTU21D;45701;48.81287245;9.14186865;2022-10-17T07:21:46;15.03;90.88
216;HTU21D;45701;48.81287245;9.14186865;2022-10-17T07:24:14;15.09;90.84
216;HTU21D;45701;48.81287245;9.14186865;2022-10-17T07:26:46;15.09;91.34
216;HTU21D;45701;48.81287245;9.14186865;2022-10-17T07:29:13;15.31;89.66
216;HTU21D;45701;48.81287245;9.14186865;2022-10-17T07:31:51;15.38;88.73
216;HTU21D;45701;48.81287245;9.14186865;2022-10-17T07:34:18;15.51;88.53
216;HTU21D;45701;48.81287245;9.14186865;2022-10-17T07:36:45;15.62;87.66
216;HTU21D;45701;48.81287245;9.14186865;2022-10-17T07:39:13;15.72;86.93
216;HTU21D;45701;48.81287245;9.14186865;2022-10-17T07:41:40;15.78;85.70
216;HTU21D;45701;48.81287245;9.14186865;2022-10-17T07:44:08;15.78;85.91
216;HTU21D;45701;48.81287245;9.14186865;2022-10-17T07:46:41;15.88;85.96
216;HTU21D;45701;48.81287245;9.14186865;2022-10-17T07:49:08;15.92;85.73
216;HTU21D;45701;48.81287245;9.14186865;2022-10-17T07:51:35;15.98;85.29
216;HTU21D;45701;48.81287245;9.14186865;2022-10-17T07:54:03;15.98;85.55
216;HTU21D;45701;48.81287245;9.14186865;2022-10-17T07:56:30;15.99;85.29
216;HTU21D;45701;48.81287245;9.14186865;2022-10-17T07:58:57;16.08;84.70
216;HTU21D;45701;48.81287245;9.14186865;2022-10-17T08:01:25;16.25;84.23
216;HTU21D;45701;48.81287245;9.14186865;2022-10-17T08:03:52;16.27;83.37
216;HTU21D;45701;48.81287245;9.14186865;2022-10-17T08:06:19;16.27;84.16
216;HTU21D;45701;48.81287245;9.14186865;2022-10-17T08:08:46;16.33;84.48
216;HTU21D;45701;48.81287245;9.14186865;2022-10-17T08:11:13;16.35;85.19
216;HTU21D;45701;48.81287245;9.14186865;2022-10-17T08:13:41;16.42;85.18
216;HTU21D;45701;48.81287245;9.14186865;2022-10-17T08:16:09;16.76;83.85
216;HTU21D;45701;48.81287245;9.14186865;2022-10-17T08:18:39;16.58;83.87
216;HTU21D;45701;48.81287245;9.14186865;2022-10-17T08:21:06;16.67;84.02
216;HTU21D;45701;48.81287245;9.14186865;2022-10-17T08:23:34;16.88;82.22
216;HTU21D;45701;48.81287245;9.14186865;2022-10-17T08:26:03;17.05;81.59
216;HTU21D;45701;48.81287245;9.14186865;2022-10-17T08:28:33;17.18;81.77
216;HTU21D;45701;48.81287245;9.14186865;2022-10-17T08:31:04;17.28;80.75
216;HTU21D;45701;48.81287245;9.14186865;2022-10-17T08:33:31;17.24;81.78
216;HTU21D;45701;48.81287245;9.14186865;2022-10-17T08:35:59;17.20;81.74
216;HTU21D;45701;48.81287245;9.14186865;2022-10-17T08:38:27;17.26;81.94
216;HTU21D;45701;48.81287245;9.14186865;2022-10-17T08:40:56;17.28;81.78
216;HTU21D;45701;48.81287245;9.14186865;2022-10-17T08:43:32;17.34;80.76
216;HTU21D;45701;48.81287245;9.14186865;2022-10-17T08:46:04;17.32;81.20
216;HTU21D;45701;48.81287245;9.14186865;2022-10-17T08:48:35;17.49;81.25
216;HTU21D;45701;48.81287245;9.14186865;2022-10-17T08:51:09;17.62;79.30
216;HTU21D;45701;48.81287245;9.14186865;2022-10-17T08:53:39;17.72;78.39
216;HTU21D;45701;48.81287245;9.14186865;2022-10-17T08:56:20;17.69;78.56
216;HTU21D;45701;48.81287245;9.14186865;2022-10-17T08:58:48;17.83;77.87
216;HTU21D;45701;48.81287245;9.14186865;2022-10-17T09:01:28;17.79;75.92
216;HTU21D;45701;48.81287245;9.14186865;2022-10-17T09:04:24;17.87;77.09
216;HTU21D;45701;48.81287245;9.14186865;2022-10-17T09:07:05;17.97;77.11
216;HTU21D;45701;48.81287245;9.14186865;2022-10-17T09:09:39;18.04;76.21
216;HTU21D;45701;48.81287245;9.14186865;2022-10-17T09:12:16;18.09;75.77
216;HTU21D;45701;48.81287245;9.14186865;2022-10-17T09:15:08;18.18;75.05
216;HTU21D;45701;48.81287245;9.14186865;2022-10-17T09:17:44;18.19;75.00
216;HTU21D;45701;48.81287245;9.14186865;2022-10-17T09:20:18;18.24;75.59
216;HTU21D;45701;48.81287245;9.14186865;2022-10-17T09:22:52;18.27;76.18
216;HTU21D;45701;48.81287245;9.14186865;2022-10-17T09:25:21;18.28;75.41
216;HTU21D;45701;48.81287245;9.14186865;2022-10-17T09:27:50;18.28;74.62
216;HTU21D;45701;48.81287245;9.14186865;2022-10-17T09:30:33;18.34;73.25
216;HTU21D;45701;48.81287245;9.14186865;2022-10-17T09:33:01;18.30;73.30
216;HTU21D;45701;48.81287245;9.14186865;2022-10-17T09:35:35;18.52;74.11
216;HTU21D;45701;48.81287245;9.14186865;2022-10-17T09:38:03;18.49;73.55
216;HTU21D;45701;48.81287245;9.14186865;2022-10-17T09:40:32;18.58;73.38
216;HTU21D;45701;48.81287245;9.14186865;2022-10-17T09:43:01;18.53;73.53
216;HTU21D;45701;48.81287245;9.14186865;2022-10-17T09:45:32;18.56;73.63
216;HTU21D;45701;48.81287245;9.14186865;2022-10-17T09:48:09;18.74;74.20
216;HTU21D;45701;48.81287245;9.14186865;2022-10-17T09:50:37;18.79;73.65
216;HTU21D;45701;48.81287245;9.14186865;2022-10-17T09:53:11;18.76;74.45
216;HTU21D;45701;48.81287245;9.14186865;2022-10-17T09:55:41;18.64;74.56
216;HTU21D;45701;48.81287245;9.14186865;2022-10-17T09:58:10;18.66;76.44
216;HTU21D;45701;48.81287245;9.14186865;2022-10-17T10:00:38;18.83;75.25
216;HTU21D;45701;48.81287245;9.14186865;2022-10-17T10:03:15;18.88;75.07
216;HTU21D;45701;48.81287245;9.14186865;2022-10-17T10:05:58;19.07;75.07
216;HTU21D;45701;48.81287245;9.14186865;2022-10-17T10:08:28;19.07;75.11
216;HTU21D;45701;48.81287245;9.14186865;2022-10-17T10:11:03;19.10;75.12
216;HTU21D;45701;48.81287245;9.14186865;2022-10-17T10:13:32;19.28;71.91
216;HTU21D;45701;48.81287245;9.14186865;2022-10-17T10:16:16;19.41;70.96
216;HTU21D;45701;48.81287245;9.14186865;2022-10-17T10:18:44;19.48;72.03
216;HTU21D;45701;48.81287245;9.14186865;2022-10-17T10:21:14;19.53;72.76
216;HTU21D;45701;48.81287245;9.14186865;2022-10-17T10:23:43;19.66;70.40
216;HTU21D;45701;48.81287245;9.14186865;2022-10-17T10:26:25;19.75;70.66
216;HTU21D;45701;48.81287245;9.14186865;2022-10-17T10:28:56;19.80;70.74
216;HTU21D;45701;48.81287245;9.14186865;2022-10-17T10:31:29;19.82;70.01
216;HTU21D;45701;48.81287245;9.14186865;2022-10-17T10:33:58;19.88;70.47
216;HTU21D;45701;48.81287245;9.14186865;2022-10-17T10:36:45;19.96;68.61
216;HTU21D;45701;48.81287245;9.14186865;2022-10-17T10:39:25;20.01;66.72
216;HTU21D;45701;48.81287245;9.14186865;2022-10-17T10:41:53;20.11;68.19
216;HTU21D;45701;48.81287245;9.14186865;2022-10-17T10:44:23;20.46;66.94
216;HTU21D;45701;48.81287245;9.14186865;2022-10-17T10:47:06;20.41;69.31
216;HTU21D;45701;48.81287245;9.14186865;2022-10-17T10:49:33;20.44;67.55
216;HTU21D;45701;48.81287245;9.14186865;2022-10-17T10:52:02;20.44;65.22
216;HTU21D;45701;48.81287245;9.14186865;2022-10-17T10:54:33;20.51;65.08
216;HTU21D;45701;48.81287245;9.14186865;2022-10-17T10:57:05;20.55;64.18
216;HTU21D;45701;48.81287245;9.14186865;2022-10-17T10:59:36;20.62;62.44
216;HTU21D;45701;48.81287245;9.14186865;2022-10-17T11:02:11;20.93;61.46
216;HTU21D;45701;48.81287245;9.14186865;2022-10-17T11:04:45;21.19;54.70
216;HTU21D;45701;48.81287245;9.14186865;2022-10-17T11:07:15;21.50;55.40
216;HTU21D;45701;48.81287245;9.14186865;2022-10-17T11:09:49;21.79;54.96
216;HTU21D;45701;48.81287245;9.14186865;2022-10-17T11:12:21;21.87;55.21
216;HTU21D;45701;48.81287245;9.14186865;2022-10-17T11:14:53;21.96;52.76
216;HTU21D;45701;48.81287245;9.14186865;2022-10-17T11:17:27;22.16;49.69
216;HTU21D;45701;48.81287245;9.14186865;2022-10-17T11:20:03;22.34;52.57
216;HTU21D;45701;48.81287245;9.14186865;2022-10-17T11:22:37;22.52;52.27
216;HTU21D;45701;48.81287245;9.14186865;2022-10-17T11:25:15;22.61;49.74
216;HTU21D;45701;48.81287245;9.14186865;2022-10-17T11:27:43;22.64;49.95
216;HTU21D;45701;48.81287245;9.14186865;2022-10-17T11:30:13;22.83;50.02
216;HTU21D;45701;48.81287245;9.14186865;2022-10-17T11:32:43;22.95;49.84
216;HTU21D;45701;48.81287245;9.14186865;2022-10-17T11:35:17;23.00;48.91
216;HTU21D;45701;48.81287245;9.14186865;2022-10-17T11:37:50;23.28;45.84
216;HTU21D;45701;48.81287245;9.14186865;2022-10-17T11:40:30;23.46;45.72
216;HTU21D;45701;48.81287245;9.14186865;2022-10-17T11:43:00;23.64;46.73
216;HTU21D;45701;48.81287245;9.14186865;2022-10-17T11:45:33;23.92;40.68
216;HTU21D;45701;48.81287245;9.14186865;2022-10-17T11:48:04;24.15;41.92
216;HTU21D;45701;48.81287245;9.14186865;2022-10-17T11:50:34;24.35;40.67
216;HTU21D;45701;48.81287245;9.14186865;2022-10-17T11:53:05;24.53;40.73
216;HTU21D;45701;48.81287245;9.14186865;2022-10-17T11:55:36;24.65;40.84
216;HTU21D;45701;48.81287245;9.14186865;2022-10-17T11:58:27;25.03;43.32
216;HTU21D;45701;48.81287245;9.14186865;2022-10-17T12:01:03;24.92;40.56
216;HTU21D;45701;48.81287245;9.14186865;2022-10-17T12:03:43;25.09;42.39
216;HTU21D;45701;48.81287245;9.14186865;2022-10-17T12:06:15;25.22;38.06
216;HTU21D;45701;48.81287245;9.14186865;2022-10-17T12:08:48;25.24;40.88
216;HTU21D;45701;48.81287245;9.14186865;2022-10-17T12:11:28;25.25;39.46
216;HTU21D;45701;48.81287245;9.14186865;2022-10-17T12:13:59;25.37;38.20
216;HTU21D;45701;48.81287245;9.14186865;2022-10-17T12:16:37;25.46;38.05
216;HTU21D;45701;48.81287245;9.14186865;2022-10-17T12:19:28;25.43;37.67
216;HTU21D;45701;48.81287245;9.14186865;2022-10-17T12:22:05;25.66;38.35
216;HTU21D;45701;48.81287245;9.14186865;2022-10-17T12:24:43;25.76;37.51
216;HTU21D;45701;48.81287245;9.14186865;2022-10-17T12:27:22;25.90;35.89
216;HTU21D;45701;48.81287245;9.14186865;2022-10-17T12:29:58;25.88;36.52
216;HTU21D;45701;48.81287245;9.14186865;2022-10-17T12:32:25;26.06;38.83
216;HTU21D;45701;48.81287245;9.14186865;2022-10-17T12:34:52;26.22;39.39
216;HTU21D;45701;48.81287245;9.14186865;2022-10-17T12:40:46;26.39;37.30
216;HTU21D;45701;48.81287245;9.14186865;2022-10-17T12:43:45;26.40;36.80
216;HTU21D;45701;48.81287245;9.14186865;2022-10-17T12:46:12;26.47;39.27
216;HTU21D;45701;48.81287245;9.14186865;2022-10-17T12:49:03;26.61;37.02
216;HTU21D;45701;48.81287245;9.14186865;2022-10-17T12:55:00;27.25;35.88
216;HTU21D;45701;48.81287245;9.14186865;2022-10-17T12:57:34;27.26;35.23
216;HTU21D;45701;48.81287245;9.14186865;2022-10-17T13:00:19;27.50;36.91
216;HTU21D;45701;48.81287245;9.14186865;2022-10-17T13:02:47;26.26;45.45
216;HTU21D;45701;48.81287245;9.14186865;2022-10-17T13:05:18;25.27;50.11
216;HTU21D;45701;48.81287245;9.14186865;2022-10-17T13:07:48;24.38;52.98
216;HTU21D;45701;48.81287245;9.14186865;2022-10-17T13:10:20;24.06;53.09
216;HTU21D;45701;48.81287245;9.14186865;2022-10-17T13:12:48;23.95;53.85
216;HTU21D;45701;48.81287245;9.14186865;2022-10-17T13:15:18;24.03;53.68
216;HTU21D;45701;48.81287245;9.14186865;2022-10-17T13:17:55;24.05;51.98
216;HTU21D;45701;48.81287245;9.14186865;2022-10-17T13:20:24;23.91;51.53
216;HTU21D;45701;48.81287245;9.14186865;2022-10-17T13:22:53;23.66;52.38
216;HTU21D;45701;48.81287245;9.14186865;2022-10-17T13:25:20;23.70;53.39
216;HTU21D;45701;48.81287245;9.14186865;2022-10-17T13:27:48;23.65;51.56
216;HTU21D;45701;48.81287245;9.14186865;2022-10-17T13:30:28;23.53;52.62
216;HTU21D;45701;48.81287245;9.14186865;2022-10-17T13:32:55;23.51;52.85
216;HTU21D;45701;48.81287245;9.14186865;2022-10-17T13:35:26;23.51;52.69
216;HTU21D;45701;48.81287245;9.14186865;2022-10-17T13:37:53;23.51;50.82
216;HTU21D;45701;48.81287245;9.14186865;2022-10-17T13:40:22;23.46;52.19
216;HTU21D;45701;48.81287245;9.14186865;2022-10-17T13:42:50;23.37;53.11
216;HTU21D;45701;48.81287245;9.14186865;2022-10-17T13:45:23;23.32;52.40
216;HTU21D;45701;48.81287245;9.14186865;2022-10-17T13:47:53;23.17;52.30
216;HTU21D;45701;48.81287245;9.14186865;2022-10-17T13:50:24;23.15;52.65
216;HTU21D;45701;48.81287245;9.14186865;2022-10-17T13:53:13;23.11;51.80
216;HTU21D;45701;48.81287245;9.14186865;2022-10-17T13:55:50;23.06;50.96
216;HTU21D;45701;48.81287245;9.14186865;2022-10-17T13:58:17;23.03;52.09
216;HTU21D;45701;48.81287245;9.14186865;2022-10-17T14:00:44;23.11;48.32
216;HTU21D;45701;48.81287245;9.14186865;2022-10-17T14:03:12;23.08;48.89
216;HTU21D;45701;48.81287245;9.14186865;2022-10-17T14:08:50;23.01;48.98
216;HTU21D;45701;48.81287245;9.14186865;2022-10-17T14:11:31;22.95;49.59
216;HTU21D;45701;48.81287245;9.14186865;2022-10-17T14:14:00;22.90;50.46
216;HTU21D;45701;48.81287245;9.14186865;2022-10-17T14:16:33;22.84;50.17